Time;durP1;ratioP1;P1;durP2;ratioP2;P2;SDS_P1;SDS_P2;PMS_P1;PMS_P2;Temp;Humidity;BMP_temperature;BMP_pressure;BME280_temperature;BME280_humidity;BME280_pressure;Samples;Min_cycle;Max_cycle;Signal;HPM_P1;HPM_P2
2021/10/30 00:01:39;;;;;;;42.03;31.20;;;;;;;;;;5086480;27;20957;-82
2021/10/30 00:04:06;;;;;;;44.10;31.02;;;;;;;;;;5082313;28;21117;-82
2021/10/30 00:06:33;;;;;;;42.33;31.77;;;;;;;;;;5092054;28;20400;-82
2021/10/30 00:09:00;;;;;;;43.45;32.47;;;;;;;;;;5077788;28;20415;-82
2021/10/30 00:11:29;;;;;;;42.97;31.63;;;;;;;;;;5076616;28;20415;-81
2021/10/30 00:13:56;;;;;;;44.40;31.05;;;;;;;;;;5086489;28;20399;-82
2021/10/30 00:16:22;;;;;;;41.03;31.02;;;;;;;;;;5092581;27;20467;-82
2021/10/30 00:18:49;;;;;;;42.25;30.77;;;;;;;;;;5096630;28;20404;-82
2021/10/30 00:21:16;;;;;;;44.92;31.42;;;;;;;;;;5094191;28;20398;-81
2021/10/30 00:23:43;;;;;;;41.55;31.85;;;;;;;;;;5097475;28;20403;-81
2021/10/30 00:26:10;;;;;;;40.72;30.05;;;;;;;;;;5095233;28;20445;-82
2021/10/30 00:28:38;;;;;;;41.00;30.60;;;;;;;;;;5096300;28;20410;-81
2021/10/30 00:31:05;;;;;;;40.05;30.95;;;;;;;;;;5102797;27;20402;-81
2021/10/30 00:33:32;;;;;;;41.05;30.42;;;;;;;;;;5097026;28;20398;-81
2021/10/30 00:35:58;;;;;;;43.50;30.35;;;;;;;;;;5097543;28;20451;-81
2021/10/30 00:38:25;;;;;;;40.47;30.50;;;;;;;;;;5095174;28;20465;-81
2021/10/30 00:40:52;;;;;;;42.10;31.08;;;;;;;;;;5097242;28;20447;-81
2021/10/30 00:43:19;;;;;;;41.22;30.13;;;;;;;;;;5094575;28;20422;-82
2021/10/30 00:45:48;;;;;;;39.88;28.13;;;;;;;;;;5097726;28;20931;-81
2021/10/30 00:48:14;;;;;;;42.65;29.60;;;;;;;;;;5095011;28;20416;-82
2021/10/30 00:50:42;;;;;;;39.17;28.58;;;;;;;;;;5100464;28;20451;-81
2021/10/30 00:53:09;;;;;;;40.85;29.75;;;;;;;;;;5095389;28;20397;-82
2021/10/30 00:55:38;;;;;;;39.17;28.93;;;;;;;;;;5093100;28;20819;-81
2021/10/30 00:58:05;;;;;;;39.13;28.20;;;;;;;;;;5100165;27;20429;-81
2021/10/30 01:00:32;;;;;;;36.38;27.27;;;;;;;;;;5100513;27;20432;-81
2021/10/30 01:03:00;;;;;;;37.55;28.60;;;;;;;;;;5100539;27;20458;-81
2021/10/30 01:05:27;;;;;;;36.55;27.33;;;;;;;;;;5102068;28;20425;-82
2021/10/30 01:07:54;;;;;;;34.85;27.77;;;;;;;;;;5106271;28;20441;-80
2021/10/30 01:10:21;;;;;;;38.28;28.00;;;;;;;;;;5105824;28;20891;-81
2021/10/30 01:12:48;;;;;;;35.85;27.25;;;;;;;;;;5096017;28;20788;-82
2021/10/30 01:15:15;;;;;;;37.00;26.83;;;;;;;;;;5094480;28;20408;-82
2021/10/30 01:17:42;;;;;;;36.45;27.10;;;;;;;;;;5105911;27;20467;-82
2021/10/30 01:20:20;;;;;;;35.65;25.60;;;;;;;;;;5091118;28;20453;-82
2021/10/30 01:22:46;;;;;;;35.90;25.85;;;;;;;;;;5096340;28;20912;-82
2021/10/30 01:25:13;;;;;;;36.73;26.17;;;;;;;;;;5095644;28;20405;-82
2021/10/30 01:27:45;;;;;;;33.55;25.80;;;;;;;;;;5099059;28;20797;-81
2021/10/30 01:30:16;;;;;;;34.37;24.93;;;;;;;;;;5095868;27;20526;-81
2021/10/30 01:32:51;;;;;;;35.20;25.92;;;;;;;;;;5099047;28;20458;-81
2021/10/30 01:35:26;;;;;;;33.30;24.75;;;;;;;;;;5092988;28;25175;-82
2021/10/30 01:37:54;;;;;;;35.20;25.45;;;;;;;;;;5096650;28;20415;-82
2021/10/30 01:40:21;;;;;;;33.97;24.38;;;;;;;;;;5094795;28;20430;-82
2021/10/30 01:42:54;;;;;;;34.08;25.45;;;;;;;;;;5094664;28;20407;-82
2021/10/30 01:45:21;;;;;;;33.25;25.45;;;;;;;;;;5096306;27;20769;-82
2021/10/30 01:47:47;;;;;;;33.88;25.70;;;;;;;;;;5097903;27;20413;-82
2021/10/30 01:50:15;;;;;;;33.70;25.70;;;;;;;;;;5093852;28;20457;-82
2021/10/30 01:52:43;;;;;;;34.70;25.30;;;;;;;;;;5094917;28;20457;-82
2021/10/30 01:55:10;;;;;;;36.45;25.40;;;;;;;;;;5098302;28;20906;-82
2021/10/30 01:57:37;;;;;;;35.13;25.17;;;;;;;;;;5090380;28;20401;-82
2021/10/30 02:00:05;;;;;;;34.35;25.42;;;;;;;;;;5098378;27;20406;-82
2021/10/30 02:02:32;;;;;;;35.92;25.70;;;;;;;;;;5104719;28;21165;-82
2021/10/30 02:04:59;;;;;;;35.70;25.17;;;;;;;;;;5107306;28;20800;-82
2021/10/30 02:07:26;;;;;;;34.57;24.80;;;;;;;;;;5087346;28;20514;-82
2021/10/30 02:09:54;;;;;;;33.28;24.42;;;;;;;;;;5086781;28;20396;-82
2021/10/30 02:12:21;;;;;;;33.17;24.30;;;;;;;;;;5086631;28;20396;-82
2021/10/30 02:14:48;;;;;;;30.42;23.48;;;;;;;;;;5086476;28;20811;-82
2021/10/30 02:17:15;;;;;;;35.90;25.10;;;;;;;;;;5118313;27;20458;-82
2021/10/30 02:19:42;;;;;;;32.35;24.98;;;;;;;;;;5116891;27;20458;-82
2021/10/30 02:22:09;;;;;;;34.10;24.08;;;;;;;;;;5086953;28;20423;-82
2021/10/30 02:24:35;;;;;;;33.35;24.27;;;;;;;;;;5085974;28;20399;-82
2021/10/30 02:27:04;;;;;;;34.88;24.77;;;;;;;;;;5086838;28;20435;-83
2021/10/30 02:29:31;;;;;;;31.73;24.13;;;;;;;;;;5085821;28;20503;-80
2021/10/30 02:31:58;;;;;;;30.65;23.73;;;;;;;;;;5111892;27;20398;-83
2021/10/30 02:34:24;;;;;;;30.67;22.98;;;;;;;;;;5092923;28;20407;-82
2021/10/30 02:36:51;;;;;;;31.90;23.23;;;;;;;;;;5086706;28;20404;-82
2021/10/30 02:39:18;;;;;;;31.97;23.47;;;;;;;;;;5085304;28;20457;-83
2021/10/30 02:41:45;;;;;;;28.88;22.83;;;;;;;;;;5086691;28;20404;-82
2021/10/30 02:44:13;;;;;;;31.70;22.90;;;;;;;;;;5085700;28;20396;-82
2021/10/30 02:46:40;;;;;;;32.38;23.75;;;;;;;;;;5106232;27;20429;-82
2021/10/30 02:49:07;;;;;;;29.73;22.58;;;;;;;;;;5106176;28;20469;-82
2021/10/30 02:51:34;;;;;;;30.43;22.87;;;;;;;;;;5104738;28;20554;-83
2021/10/30 02:54:01;;;;;;;35.65;22.67;;;;;;;;;;5107026;28;20498;-82
2021/10/30 02:56:28;;;;;;;32.15;23.40;;;;;;;;;;5099517;28;20416;-82
2021/10/30 02:58:55;;;;;;;32.25;22.50;;;;;;;;;;5086162;28;20437;-82
2021/10/30 03:01:24;;;;;;;31.80;23.30;;;;;;;;;;5097968;28;20461;-81
2021/10/30 03:03:51;;;;;;;29.80;23.17;;;;;;;;;;5086525;28;20796;-80
2021/10/30 03:06:21;;;;;;;31.85;23.05;;;;;;;;;;5085166;28;20431;-82
2021/10/30 03:08:48;;;;;;;31.40;22.63;;;;;;;;;;5086431;28;20545;-83
2021/10/30 03:11:15;;;;;;;31.48;22.05;;;;;;;;;;5085226;28;20396;-82
2021/10/30 03:13:42;;;;;;;33.60;22.23;;;;;;;;;;5086292;28;20465;-83
2021/10/30 03:16:08;;;;;;;32.38;22.55;;;;;;;;;;5092883;28;20409;-82
2021/10/30 03:18:37;;;;;;;31.33;22.92;;;;;;;;;;5106623;28;20398;-82
2021/10/30 03:21:04;;;;;;;30.10;22.27;;;;;;;;;;5086047;28;20457;-82
2021/10/30 03:23:31;;;;;;;29.75;21.55;;;;;;;;;;5084416;28;20400;-82
2021/10/30 03:25:57;;;;;;;31.20;23.00;;;;;;;;;;5092960;28;20471;-82
2021/10/30 03:28:24;;;;;;;31.42;22.77;;;;;;;;;;5105488;28;20414;-82
2021/10/30 03:30:51;;;;;;;33.90;23.10;;;;;;;;;;5112557;28;20407;-82
2021/10/30 03:33:18;;;;;;;30.20;22.67;;;;;;;;;;5119470;27;20547;-82
2021/10/30 03:35:46;;;;;;;32.10;22.77;;;;;;;;;;5106471;28;20410;-82
2021/10/30 03:38:13;;;;;;;30.33;22.08;;;;;;;;;;5096238;28;20404;-82
2021/10/30 03:40:40;;;;;;;28.92;21.52;;;;;;;;;;5085812;28;20388;-82
2021/10/30 03:43:07;;;;;;;30.50;21.07;;;;;;;;;;5085041;28;20400;-82
2021/10/30 03:45:34;;;;;;;29.55;20.75;;;;;;;;;;5087795;28;21061;-82
2021/10/30 03:48:04;;;;;;;26.40;20.55;;;;;;;;;;5091161;27;20423;-82
2021/10/30 03:50:31;;;;;;;29.75;20.42;;;;;;;;;;5085567;28;20951;-81
2021/10/30 03:52:59;;;;;;;29.73;21.67;;;;;;;;;;5085408;28;20397;-82
2021/10/30 03:55:26;;;;;;;29.13;20.48;;;;;;;;;;5092598;28;20406;-82
2021/10/30 03:57:53;;;;;;;26.70;20.67;;;;;;;;;;5084354;28;20408;-82
2021/10/30 04:00:20;;;;;;;28.48;21.17;;;;;;;;;;5092399;28;20414;-82
2021/10/30 04:02:47;;;;;;;27.85;20.58;;;;;;;;;;5119602;28;20457;-82
2021/10/30 04:05:14;;;;;;;28.90;20.45;;;;;;;;;;5092587;27;20423;-82
2021/10/30 04:07:41;;;;;;;27.63;20.73;;;;;;;;;;5103589;28;20395;-81
2021/10/30 04:10:10;;;;;;;27.40;20.90;;;;;;;;;;5094844;28;20780;-81
2021/10/30 04:12:37;;;;;;;28.30;19.75;;;;;;;;;;5112087;28;20411;-81
2021/10/30 04:15:05;;;;;;;32.72;20.88;;;;;;;;;;5114580;28;20387;-82
2021/10/30 04:17:31;;;;;;;29.88;20.75;;;;;;;;;;5106005;27;20404;-82
2021/10/30 04:19:58;;;;;;;28.20;20.17;;;;;;;;;;5095754;28;20939;-82
2021/10/30 04:22:25;;;;;;;31.45;20.63;;;;;;;;;;5098714;28;20465;-82
2021/10/30 04:24:53;;;;;;;34.70;20.33;;;;;;;;;;5093266;28;20409;-82
2021/10/30 04:27:21;;;;;;;27.65;19.92;;;;;;;;;;5101006;28;20497;-82
2021/10/30 04:29:48;;;;;;;27.42;18.70;;;;;;;;;;5099180;27;20927;-81
2021/10/30 04:32:16;;;;;;;27.85;19.60;;;;;;;;;;5101153;27;20739;-82
2021/10/30 04:34:46;;;;;;;25.67;18.80;;;;;;;;;;5095933;28;20401;-82
2021/10/30 04:37:15;;;;;;;25.30;18.67;;;;;;;;;;5096714;28;20412;-82
2021/10/30 04:39:42;;;;;;;25.07;18.90;;;;;;;;;;5095813;28;20400;-82
2021/10/30 04:42:08;;;;;;;25.95;18.33;;;;;;;;;;5095366;28;20942;-81
2021/10/30 04:44:37;;;;;;;26.38;18.63;;;;;;;;;;5099691;28;21137;-82
2021/10/30 04:47:04;;;;;;;24.95;18.23;;;;;;;;;;5102448;27;20801;-82
2021/10/30 04:49:31;;;;;;;32.40;19.95;;;;;;;;;;5096671;28;20432;-81
2021/10/30 04:51:58;;;;;;;28.80;18.77;;;;;;;;;;5094298;28;20400;-82
2021/10/30 04:54:25;;;;;;;27.15;19.70;;;;;;;;;;5097874;28;20855;-82
2021/10/30 04:56:52;;;;;;;26.75;18.85;;;;;;;;;;5095104;28;20459;-82
2021/10/30 04:59:18;;;;;;;25.23;18.55;;;;;;;;;;5098895;28;20403;-82
2021/10/30 05:01:47;;;;;;;24.25;18.50;;;;;;;;;;5094524;27;20408;-82
2021/10/30 05:04:13;;;;;;;26.42;18.60;;;;;;;;;;5097929;28;20467;-82
2021/10/30 05:06:40;;;;;;;24.83;18.00;;;;;;;;;;5090318;28;20404;-82
2021/10/30 05:09:07;;;;;;;25.52;18.05;;;;;;;;;;5093045;28;20939;-82
2021/10/30 05:11:34;;;;;;;21.98;17.30;;;;;;;;;;5101346;28;20460;-82
2021/10/30 05:14:01;;;;;;;23.67;17.67;;;;;;;;;;5098317;28;21290;-82
2021/10/30 05:16:27;;;;;;;23.90;16.90;;;;;;;;;;5101794;27;20403;-81
2021/10/30 05:18:56;;;;;;;23.10;16.60;;;;;;;;;;5092500;28;20417;-82
2021/10/30 05:21:22;;;;;;;21.17;16.13;;;;;;;;;;5099389;28;20420;-81
2021/10/30 05:23:49;;;;;;;22.05;16.50;;;;;;;;;;5097179;28;20402;-82
2021/10/30 05:26:17;;;;;;;23.00;16.13;;;;;;;;;;5089291;28;20834;-81
2021/10/30 05:28:43;;;;;;;22.52;16.35;;;;;;;;;;5089357;28;20414;-82
2021/10/30 05:31:10;;;;;;;21.93;16.90;;;;;;;;;;5096399;27;20488;-81
2021/10/30 05:33:37;;;;;;;23.25;16.75;;;;;;;;;;5087271;28;20399;-82
2021/10/30 05:36:08;;;;;;;22.55;17.05;;;;;;;;;;5091494;28;20786;-82
2021/10/30 05:38:35;;;;;;;22.15;16.77;;;;;;;;;;5092714;28;20422;-82
2021/10/30 05:41:02;;;;;;;22.20;16.13;;;;;;;;;;5103320;28;20487;-83
2021/10/30 05:43:29;;;;;;;22.65;16.25;;;;;;;;;;5093746;28;20409;-83
2021/10/30 05:45:56;;;;;;;23.30;17.67;;;;;;;;;;5101922;27;20458;-83
2021/10/30 05:48:23;;;;;;;23.13;16.52;;;;;;;;;;5094033;28;20675;-82
2021/10/30 05:50:50;;;;;;;26.35;18.77;;;;;;;;;;5092395;28;20420;-82
2021/10/30 05:53:18;;;;;;;22.60;17.20;;;;;;;;;;5094898;28;20408;-82
2021/10/30 05:55:45;;;;;;;21.85;16.85;;;;;;;;;;5093090;28;20408;-83
2021/10/30 05:58:11;;;;;;;26.48;18.65;;;;;;;;;;5097651;28;20403;-82
2021/10/30 06:00:38;;;;;;;157.87;77.70;;;;;;;;;;5096482;27;20448;-82
2021/10/30 06:03:05;;;;;;;102.80;51.92;;;;;;;;;;5097256;28;20936;-82
2021/10/30 06:05:32;;;;;;;265.08;142.55;;;;;;;;;;5090964;28;20429;-83
2021/10/30 06:07:59;;;;;;;149.75;84.75;;;;;;;;;;5094448;28;20390;-82
2021/10/30 06:10:30;;;;;;;102.80;63.30;;;;;;;;;;5092238;28;20414;-82
2021/10/30 06:12:56;;;;;;;50.55;32.35;;;;;;;;;;5096498;28;20465;-82
2021/10/30 06:15:23;;;;;;;32.87;23.43;;;;;;;;;;5097989;28;20463;-82
2021/10/30 06:17:50;;;;;;;29.00;19.52;;;;;;;;;;5109532;27;20752;-82
2021/10/30 06:20:17;;;;;;;32.30;18.60;;;;;;;;;;5093926;28;21015;-83
2021/10/30 06:22:44;;;;;;;25.43;17.67;;;;;;;;;;5092358;28;21529;-83
2021/10/30 06:25:11;;;;;;;31.83;22.48;;;;;;;;;;5096702;28;20402;-82
2021/10/30 06:27:40;;;;;;;29.88;19.88;;;;;;;;;;5095361;28;20396;-83
2021/10/30 06:30:08;;;;;;;31.17;19.23;;;;;;;;;;5097469;28;20421;-82
2021/10/30 06:32:35;;;;;;;27.88;19.08;;;;;;;;;;5092099;27;20400;-82
2021/10/30 06:35:02;;;;;;;31.48;21.85;;;;;;;;;;5096345;28;20416;-83
2021/10/30 06:37:28;;;;;;;28.35;19.90;;;;;;;;;;5090844;28;20473;-83
2021/10/30 06:39:55;;;;;;;30.60;21.05;;;;;;;;;;5095809;28;20395;-83
2021/10/30 06:42:22;;;;;;;45.90;35.60;;;;;;;;;;5087455;28;20419;-83
2021/10/30 06:44:50;;;;;;;34.00;23.50;;;;;;;;;;5096534;28;20406;-83
2021/10/30 06:47:17;;;;;;;27.85;20.20;;;;;;;;;;5097849;28;20433;-83
2021/10/30 06:49:44;;;;;;;28.63;19.52;;;;;;;;;;5089250;28;20422;-82
2021/10/30 06:52:11;;;;;;;29.73;21.05;;;;;;;;;;5094097;28;20395;-83
2021/10/30 06:54:38;;;;;;;28.88;19.65;;;;;;;;;;5093264;28;20397;-82
2021/10/30 06:57:07;;;;;;;26.45;17.98;;;;;;;;;;5090551;28;20400;-83
2021/10/30 06:59:35;;;;;;;26.80;19.15;;;;;;;;;;5093100;28;21200;-82
2021/10/30 07:02:04;;;;;;;27.58;19.27;;;;;;;;;;5093783;28;20408;-82
2021/10/30 07:04:33;;;;;;;27.20;18.95;;;;;;;;;;5088108;28;20408;-83
2021/10/30 07:07:00;;;;;;;25.73;19.40;;;;;;;;;;5097509;28;20467;-83
2021/10/30 07:09:26;;;;;;;23.90;18.65;;;;;;;;;;5092248;28;20420;-84
2021/10/30 07:11:53;;;;;;;25.23;18.58;;;;;;;;;;5098040;28;20483;-83
2021/10/30 07:14:21;;;;;;;30.73;22.50;;;;;;;;;;5086331;28;20414;-83
2021/10/30 07:16:48;;;;;;;31.83;23.10;;;;;;;;;;5130635;28;20423;-83
2021/10/30 07:19:17;;;;;;;36.15;27.60;;;;;;;;;;5093616;28;20465;-83
2021/10/30 07:21:43;;;;;;;31.63;22.52;;;;;;;;;;5091630;28;20402;-83
2021/10/30 07:24:10;;;;;;;25.17;19.23;;;;;;;;;;5086873;28;20404;-83
2021/10/30 07:26:37;;;;;;;28.48;20.95;;;;;;;;;;5086895;28;20470;-83
2021/10/30 07:29:04;;;;;;;28.63;19.98;;;;;;;;;;5091196;28;20517;-83
2021/10/30 07:31:31;;;;;;;37.80;28.10;;;;;;;;;;5098120;28;20454;-83
2021/10/30 07:33:57;;;;;;;30.30;21.38;;;;;;;;;;5090219;28;20759;-83
2021/10/30 07:36:26;;;;;;;32.72;22.30;;;;;;;;;;5088767;28;20758;-83
2021/10/30 07:38:53;;;;;;;26.93;20.53;;;;;;;;;;5087504;28;20426;-83
2021/10/30 07:41:19;;;;;;;30.50;20.90;;;;;;;;;;5089238;28;20479;-82
2021/10/30 07:43:47;;;;;;;29.50;19.73;;;;;;;;;;5093442;28;20395;-83
2021/10/30 07:46:13;;;;;;;29.17;20.17;;;;;;;;;;5101789;27;20746;-83
2021/10/30 07:48:41;;;;;;;27.42;19.60;;;;;;;;;;5101067;28;20398;-83
2021/10/30 07:51:08;;;;;;;27.85;20.00;;;;;;;;;;5091791;28;20439;-83
2021/10/30 07:53:36;;;;;;;36.67;20.97;;;;;;;;;;5101281;28;20463;-83
2021/10/30 07:56:03;;;;;;;27.20;20.55;;;;;;;;;;5092085;28;20463;-83
2021/10/30 07:58:30;;;;;;;28.92;21.55;;;;;;;;;;5102107;28;20423;-83
2021/10/30 08:00:57;;;;;;;29.80;22.00;;;;;;;;;;5094430;27;20442;-83
2021/10/30 08:03:24;;;;;;;30.77;22.02;;;;;;;;;;5104681;28;20399;-83
2021/10/30 08:05:51;;;;;;;30.92;22.30;;;;;;;;;;5097034;28;20447;-83
2021/10/30 08:08:17;;;;;;;28.40;21.95;;;;;;;;;;5096087;28;20404;-83
2021/10/30 08:10:46;;;;;;;30.40;22.63;;;;;;;;;;5101217;28;20500;-83
2021/10/30 08:13:13;;;;;;;29.95;22.38;;;;;;;;;;5086825;28;20816;-83
2021/10/30 08:15:40;;;;;;;30.80;22.58;;;;;;;;;;5095098;27;20471;-83
2021/10/30 08:18:07;;;;;;;30.13;21.65;;;;;;;;;;5087849;28;20442;-83
2021/10/30 08:20:35;;;;;;;28.30;21.00;;;;;;;;;;5095876;28;20546;-82
2021/10/30 08:23:02;;;;;;;32.60;21.85;;;;;;;;;;5097579;28;20412;-83
2021/10/30 08:25:29;;;;;;;33.10;21.45;;;;;;;;;;5098387;28;20448;-83
2021/10/30 08:27:57;;;;;;;30.60;22.05;;;;;;;;;;5103956;27;20776;-83
2021/10/30 08:30:24;;;;;;;29.00;22.27;;;;;;;;;;5102690;28;20435;-83
2021/10/30 08:32:51;;;;;;;31.42;22.65;;;;;;;;;;5096502;27;20400;-84
2021/10/30 08:35:18;;;;;;;32.22;22.95;;;;;;;;;;5099558;28;20783;-83
2021/10/30 08:37:45;;;;;;;31.15;22.00;;;;;;;;;;5101104;28;20406;-83
2021/10/30 08:40:14;;;;;;;28.17;20.97;;;;;;;;;;5095626;28;20866;-83
2021/10/30 08:42:46;;;;;;;36.65;25.23;;;;;;;;;;5095728;28;20438;-83
2021/10/30 08:45:14;;;;;;;29.38;20.38;;;;;;;;;;5094772;27;20416;-83
2021/10/30 08:47:42;;;;;;;30.35;21.60;;;;;;;;;;5100656;28;20814;-83
2021/10/30 08:50:10;;;;;;;30.25;19.05;;;;;;;;;;5094532;28;20507;-83
2021/10/30 08:52:37;;;;;;;26.08;19.65;;;;;;;;;;5099539;28;20581;-83
2021/10/30 08:55:05;;;;;;;25.63;18.48;;;;;;;;;;5094736;28;20397;-83
2021/10/30 08:57:31;;;;;;;27.13;20.73;;;;;;;;;;5099931;28;20404;-83
2021/10/30 09:00:17;;;;;;;26.80;20.65;;;;;;;;;;5093621;28;20878;-83
2021/10/30 09:02:44;;;;;;;32.17;22.75;;;;;;;;;;5103081;27;20402;-83
2021/10/30 09:05:13;;;;;;;27.08;20.33;;;;;;;;;;5094220;28;20410;-83
2021/10/30 09:07:40;;;;;;;27.02;20.52;;;;;;;;;;5098230;27;20417;-83
2021/10/30 09:10:13;;;;;;;29.10;20.27;;;;;;;;;;5093614;28;20414;-83
2021/10/30 09:12:51;;;;;;;29.15;20.10;;;;;;;;;;5094548;28;20408;-83
2021/10/30 09:15:30;;;;;;;26.65;19.17;;;;;;;;;;5099635;28;20478;-83
2021/10/30 09:17:57;;;;;;;27.65;20.77;;;;;;;;;;5094006;27;20418;-83
2021/10/30 09:20:30;;;;;;;29.65;20.27;;;;;;;;;;5097796;27;20394;-83
2021/10/30 09:22:57;;;;;;;29.57;21.67;;;;;;;;;;5094720;28;20473;-83
2021/10/30 09:25:24;;;;;;;32.17;21.70;;;;;;;;;;5096318;28;20450;-83
2021/10/30 09:27:54;;;;;;;40.83;25.70;;;;;;;;;;5098315;28;20406;-83
2021/10/30 09:30:28;;;;;;;28.60;20.93;;;;;;;;;;5095699;28;20481;-83
2021/10/30 09:32:58;;;;;;;29.73;21.63;;;;;;;;;;5095713;28;20405;-83
2021/10/30 09:35:29;;;;;;;65.95;36.33;;;;;;;;;;5093948;28;20445;-83
2021/10/30 09:37:57;;;;;;;29.10;21.45;;;;;;;;;;5096193;28;20395;-83
2021/10/30 09:40:27;;;;;;;43.10;27.20;;;;;;;;;;5094199;28;20807;-83
2021/10/30 09:43:12;;;;;;;30.27;22.02;;;;;;;;;;5096067;28;20457;-83
2021/10/30 09:45:42;;;;;;;27.33;20.02;;;;;;;;;;5094016;28;20414;-83
2021/10/30 09:48:14;;;;;;;26.73;19.73;;;;;;;;;;5098987;28;20450;-83
2021/10/30 09:50:41;;;;;;;27.42;20.05;;;;;;;;;;5088907;28;20420;-83
2021/10/30 09:53:24;;;;;;;29.63;21.88;;;;;;;;;;5098044;28;21331;-83
2021/10/30 09:55:53;;;;;;;32.70;22.67;;;;;;;;;;5092191;28;20409;-74
2021/10/30 09:58:37;;;;;;;33.35;23.83;;;;;;;;;;5097167;28;20490;-84
2021/10/30 10:01:12;;;;;;;30.52;22.90;;;;;;;;;;5094834;27;20412;-82
2021/10/30 10:03:39;;;;;;;33.13;24.60;;;;;;;;;;5085085;28;20414;-83
2021/10/30 10:06:09;;;;;;;30.92;23.48;;;;;;;;;;5092581;28;20410;-82
2021/10/30 10:08:38;;;;;;;31.88;22.75;;;;;;;;;;5088473;28;20396;-83
2021/10/30 10:11:08;;;;;;;29.83;21.08;;;;;;;;;;5090159;28;20800;-83
2021/10/30 10:13:37;;;;;;;27.00;20.50;;;;;;;;;;5089541;28;20407;-83
2021/10/30 10:16:04;;;;;;;27.33;21.07;;;;;;;;;;5097662;27;20410;-82
2021/10/30 10:18:34;;;;;;;29.20;22.37;;;;;;;;;;5092266;28;20404;-82
2021/10/30 10:21:02;;;;;;;30.52;22.77;;;;;;;;;;5088810;28;20885;-83
2021/10/30 10:23:29;;;;;;;31.48;23.67;;;;;;;;;;5089645;28;20412;-82
2021/10/30 10:25:57;;;;;;;31.95;23.17;;;;;;;;;;5094347;28;20407;-82
2021/10/30 10:28:26;;;;;;;28.40;21.85;;;;;;;;;;5093523;28;20402;-82
2021/10/30 10:30:57;;;;;;;30.40;22.90;;;;;;;;;;5097634;27;20405;-84
2021/10/30 10:33:25;;;;;;;29.77;21.20;;;;;;;;;;5095105;28;20398;-83
2021/10/30 10:36:25;;;;;;;28.48;20.63;;;;;;;;;;5092835;28;20466;-81
2021/10/30 10:39:22;;;;;;;26.25;20.10;;;;;;;;;;5052478;28;20494;-82
2021/10/30 10:41:57;;;;;;;25.77;19.77;;;;;;;;;;5092652;28;21151;-81
2021/10/30 10:45:00;;;;;;;25.33;18.47;;;;;;;;;;5090069;28;20504;-81
2021/10/30 10:48:03;;;;;;;23.30;17.42;;;;;;;;;;5103111;27;20404;-81
2021/10/30 10:50:46;;;;;;;25.63;19.55;;;;;;;;;;5092180;28;20782;-82
2021/10/30 10:53:33;;;;;;;28.00;19.90;;;;;;;;;;5093167;28;20796;-82
2021/10/30 10:56:17;;;;;;;28.50;20.70;;;;;;;;;;5098398;28;20411;-82
2021/10/30 10:59:10;;;;;;;27.65;20.52;;;;;;;;;;5092092;28;20400;-82
2021/10/30 11:01:41;;;;;;;27.67;20.87;;;;;;;;;;5103038;28;20493;-81
2021/10/30 11:04:15;;;;;;;27.60;22.67;;;;;;;;;;5104008;28;20394;-82
2021/10/30 11:06:46;;;;;;;28.55;21.65;;;;;;;;;;5105606;28;20818;-83
2021/10/30 11:09:17;;;;;;;38.05;25.30;;;;;;;;;;5088821;28;20872;-83
2021/10/30 11:11:46;;;;;;;28.23;21.07;;;;;;;;;;5088693;28;20506;-83
2021/10/30 11:14:14;;;;;;;28.03;21.30;;;;;;;;;;5085360;28;20885;-83
2021/10/30 11:17:02;;;;;;;28.52;22.25;;;;;;;;;;5092284;28;20427;-83
2021/10/30 11:19:33;;;;;;;24.63;17.97;;;;;;;;;;5091520;28;21003;-82
2021/10/30 11:22:12;;;;;;;22.98;18.40;;;;;;;;;;5086341;28;20419;-82
2021/10/30 11:24:50;;;;;;;23.30;17.73;;;;;;;;;;5093861;28;20398;-82
2021/10/30 11:27:17;;;;;;;21.02;17.48;;;;;;;;;;5089518;27;20417;-83
2021/10/30 11:29:49;;;;;;;23.40;17.50;;;;;;;;;;5091979;28;20852;-82
2021/10/30 11:32:16;;;;;;;24.20;18.13;;;;;;;;;;5098133;27;20904;-82
2021/10/30 11:34:50;;;;;;;25.20;17.97;;;;;;;;;;5092962;28;20889;-82
2021/10/30 11:37:16;;;;;;;22.80;17.83;;;;;;;;;;5097259;28;20404;-81
2021/10/30 11:39:45;;;;;;;24.10;18.23;;;;;;;;;;5094547;28;20806;-82
2021/10/30 11:42:14;;;;;;;26.83;19.88;;;;;;;;;;5099855;28;20452;-82
2021/10/30 11:44:52;;;;;;;23.30;17.92;;;;;;;;;;5092184;27;20400;-82
2021/10/30 11:47:26;;;;;;;19.70;15.77;;;;;;;;;;5102321;27;20415;-81
2021/10/30 11:49:53;;;;;;;21.80;16.92;;;;;;;;;;5101493;27;20795;-82
2021/10/30 11:52:21;;;;;;;22.30;17.58;;;;;;;;;;5101849;27;20983;-81
2021/10/30 11:54:47;;;;;;;28.20;19.85;;;;;;;;;;5096691;28;20452;-82
2021/10/30 11:57:16;;;;;;;27.98;20.20;;;;;;;;;;5098252;28;20477;-81
2021/10/30 11:59:43;;;;;;;26.85;20.13;;;;;;;;;;5095089;28;21099;-82
2021/10/30 12:02:14;;;;;;;27.42;21.23;;;;;;;;;;5104360;28;20411;-82
2021/10/30 12:04:41;;;;;;;26.77;19.55;;;;;;;;;;5094194;28;20505;-82
2021/10/30 12:07:08;;;;;;;29.85;22.40;;;;;;;;;;5092402;28;20400;-82
2021/10/30 12:09:37;;;;;;;24.83;19.33;;;;;;;;;;5098240;27;20432;-81
2021/10/30 12:12:06;;;;;;;25.35;19.02;;;;;;;;;;5092206;28;20421;-81
2021/10/30 12:14:37;;;;;;;24.42;19.05;;;;;;;;;;5097374;27;21175;-82
2021/10/30 12:17:06;;;;;;;24.20;18.60;;;;;;;;;;5104135;27;20410;-82
2021/10/30 12:19:34;;;;;;;22.95;17.65;;;;;;;;;;5102725;28;20414;-83
2021/10/30 12:22:08;;;;;;;22.27;17.30;;;;;;;;;;5090766;28;20874;-80
2021/10/30 12:24:36;;;;;;;22.15;17.55;;;;;;;;;;5092084;28;20412;-82
2021/10/30 12:27:04;;;;;;;22.90;17.77;;;;;;;;;;5092042;28;20414;-82
2021/10/30 12:29:32;;;;;;;22.40;17.63;;;;;;;;;;5096203;28;20404;-81
2021/10/30 12:32:06;;;;;;;23.20;18.30;;;;;;;;;;5101198;27;20485;-81
2021/10/30 12:34:34;;;;;;;35.92;26.17;;;;;;;;;;5096614;28;20450;-80
2021/10/30 12:37:06;;;;;;;28.58;20.42;;;;;;;;;;5093277;28;20476;-82
2021/10/30 12:39:34;;;;;;;23.23;18.10;;;;;;;;;;5092919;28;20417;-82
2021/10/30 12:42:03;;;;;;;21.53;17.93;;;;;;;;;;5093141;28;20745;-82
2021/10/30 12:44:32;;;;;;;25.30;18.45;;;;;;;;;;5094765;27;20404;-85
2021/10/30 12:47:02;;;;;;;21.35;16.55;;;;;;;;;;5095889;27;20427;-83
2021/10/30 12:49:33;;;;;;;21.50;17.17;;;;;;;;;;5102112;28;20399;-84
2021/10/30 12:52:06;;;;;;;23.20;17.50;;;;;;;;;;5096064;28;20881;-84
2021/10/30 12:54:34;;;;;;;21.90;17.50;;;;;;;;;;5092990;28;20480;-84
2021/10/30 12:57:01;;;;;;;23.20;17.75;;;;;;;;;;5097147;28;20393;-82
2021/10/30 12:59:38;;;;;;;22.70;18.20;;;;;;;;;;5096592;28;20408;-83
2021/10/30 13:02:06;;;;;;;21.80;17.05;;;;;;;;;;5090678;28;20416;-83
2021/10/30 13:04:36;;;;;;;22.02;17.23;;;;;;;;;;5097979;28;20400;-83
2021/10/30 13:07:06;;;;;;;22.75;18.15;;;;;;;;;;5099705;28;20742;-81
2021/10/30 13:09:34;;;;;;;23.75;18.15;;;;;;;;;;5095979;28;20458;-83
2021/10/30 13:12:02;;;;;;;21.40;17.63;;;;;;;;;;5092616;28;20442;-84
2021/10/30 13:14:29;;;;;;;23.17;17.00;;;;;;;;;;5104123;27;20436;-83
2021/10/30 13:16:57;;;;;;;21.53;18.10;;;;;;;;;;5095367;28;20451;-83
2021/10/30 13:19:23;;;;;;;22.17;17.73;;;;;;;;;;5098321;28;20710;-83
2021/10/30 13:21:54;;;;;;;23.77;18.50;;;;;;;;;;5092897;28;20455;-83
2021/10/30 13:24:22;;;;;;;24.33;17.57;;;;;;;;;;5095481;28;20475;-83
2021/10/30 13:26:49;;;;;;;23.63;17.52;;;;;;;;;;5096985;28;20397;-83
2021/10/30 13:29:16;;;;;;;21.33;17.77;;;;;;;;;;5094444;28;20404;-83
2021/10/30 13:31:43;;;;;;;22.30;17.73;;;;;;;;;;5094981;27;20920;-83
2021/10/30 13:34:10;;;;;;;22.40;17.85;;;;;;;;;;5090548;28;20490;-83
2021/10/30 13:36:37;;;;;;;20.35;17.20;;;;;;;;;;5096809;28;20394;-83
2021/10/30 13:39:06;;;;;;;22.38;17.10;;;;;;;;;;5094543;28;21915;-82
2021/10/30 13:41:33;;;;;;;23.20;17.73;;;;;;;;;;5096542;28;20411;-82
2021/10/30 13:44:03;;;;;;;23.08;19.00;;;;;;;;;;5095969;27;20411;-83
2021/10/30 13:46:32;;;;;;;23.48;19.00;;;;;;;;;;5100713;27;20469;-82
2021/10/30 13:48:59;;;;;;;23.23;18.27;;;;;;;;;;5092132;28;20491;-82
2021/10/30 13:51:27;;;;;;;24.35;18.45;;;;;;;;;;5097237;28;20414;-82
2021/10/30 13:53:56;;;;;;;23.35;17.58;;;;;;;;;;5094140;28;20398;-83
2021/10/30 13:56:24;;;;;;;23.02;18.40;;;;;;;;;;5098770;28;20849;-83
2021/10/30 13:58:51;;;;;;;23.70;18.42;;;;;;;;;;5090544;28;20491;-83
2021/10/30 14:01:19;;;;;;;26.23;19.48;;;;;;;;;;5101870;27;20885;-82
2021/10/30 14:03:46;;;;;;;24.67;20.00;;;;;;;;;;5093165;28;20407;-82
2021/10/30 14:06:14;;;;;;;26.23;20.42;;;;;;;;;;5095675;28;20414;-82
2021/10/30 14:08:41;;;;;;;23.90;19.77;;;;;;;;;;5093637;28;20443;-83
2021/10/30 14:11:08;;;;;;;25.77;21.10;;;;;;;;;;5096569;28;20400;-82
2021/10/30 14:13:36;;;;;;;26.58;21.02;;;;;;;;;;5099463;27;20406;-83
2021/10/30 14:16:04;;;;;;;28.25;21.20;;;;;;;;;;5099492;27;20409;-83
2021/10/30 14:18:32;;;;;;;28.33;20.83;;;;;;;;;;5097614;28;20411;-83
2021/10/30 14:21:03;;;;;;;28.02;21.08;;;;;;;;;;5092119;28;20454;-83
2021/10/30 14:23:30;;;;;;;28.30;21.53;;;;;;;;;;5096283;28;20402;-82
2021/10/30 14:25:58;;;;;;;27.55;21.52;;;;;;;;;;5093606;28;20402;-82